createdAt,value
2022-10-26T00:01:26.711Z,11.10
2022-10-26T00:03:58.086Z,11.10
2022-10-26T00:06:29.053Z,11.10
2022-10-26T00:08:58.649Z,11.00
2022-10-26T00:11:27.108Z,10.90
2022-10-26T00:13:55.668Z,10.90
2022-10-26T00:16:26.460Z,10.90
2022-10-26T00:18:56.991Z,10.80
2022-10-26T00:21:25.518Z,10.70
2022-10-26T00:23:53.957Z,10.70
2022-10-26T00:26:22.500Z,10.60
2022-10-26T00:28:51.018Z,10.60
2022-10-26T00:31:19.550Z,10.60
2022-10-26T00:33:48.377Z,10.60
2022-10-26T00:36:18.620Z,10.50
2022-10-26T00:38:50.493Z,10.40
2022-10-26T00:41:20.223Z,10.40
2022-10-26T00:43:49.177Z,10.30
2022-10-26T00:46:21.948Z,10.30
2022-10-26T00:48:53.448Z,10.30
2022-10-26T00:51:26.900Z,10.30
2022-10-26T00:53:56.498Z,10.30
2022-10-26T00:56:25.448Z,10.30
2022-10-26T00:58:54.178Z,10.20
2022-10-26T01:01:22.702Z,10.10
2022-10-26T01:03:51.550Z,10.10
2022-10-26T01:06:20.389Z,10.10
2022-10-26T01:08:50.815Z,10.10
2022-10-26T01:11:19.739Z,10.10
2022-10-26T01:13:49.678Z,10.10
2022-10-26T01:16:39.569Z,10.10
2022-10-26T01:19:45.768Z,10.10
2022-10-26T01:22:20.030Z,10.00
2022-10-26T01:25:04.402Z,10.00
2022-10-26T01:27:35.824Z,10.00
2022-10-26T01:30:29.219Z,10.00
2022-10-26T01:33:10.619Z,10.10
2022-10-26T01:35:47.258Z,10.10
2022-10-26T01:38:28.138Z,10.10
2022-10-26T01:41:03.288Z,10.10
2022-10-26T01:43:36.699Z,10.00
2022-10-26T01:46:09.452Z,10.00
2022-10-26T01:48:40.578Z,10.00
2022-10-26T01:51:10.995Z,10.00
2022-10-26T01:53:46.158Z,10.00
2022-10-26T01:56:19.996Z,10.10
2022-10-26T01:59:21.098Z,10.10
2022-10-26T02:02:19.099Z,10.10
2022-10-26T02:05:09.351Z,10.10
2022-10-26T02:07:48.989Z,10.10
2022-10-26T02:10:30.838Z,10.10
2022-10-26T02:13:10.238Z,10.00
2022-10-26T02:15:41.958Z,10.00
2022-10-26T02:18:20.807Z,10.00
2022-10-26T02:20:55.159Z,10.00
2022-10-26T02:23:27.448Z,10.00
2022-10-26T02:26:00.387Z,9.90
2022-10-26T02:28:29.478Z,9.90
2022-10-26T02:31:00.797Z,9.90
2022-10-26T02:33:32.732Z,9.90
2022-10-26T02:36:06.907Z,9.90
2022-10-26T02:38:38.347Z,9.90
2022-10-26T02:41:08.507Z,10.00
2022-10-26T02:43:43.368Z,10.00
2022-10-26T02:46:16.938Z,9.90
2022-10-26T02:48:45.838Z,9.80
2022-10-26T02:51:20.704Z,9.80
2022-10-26T02:53:54.745Z,9.80
2022-10-26T02:56:29.759Z,9.90
2022-10-26T02:59:05.695Z,9.80
2022-10-26T03:01:35.912Z,9.80
2022-10-26T03:04:04.730Z,9.80
2022-10-26T03:06:34.688Z,9.80
2022-10-26T03:09:03.375Z,9.90
2022-10-26T03:11:31.837Z,9.90
2022-10-26T03:14:00.304Z,9.80
2022-10-26T03:16:29.000Z,9.80
2022-10-26T03:18:57.432Z,9.70
2022-10-26T03:21:29.097Z,9.80
2022-10-26T03:23:59.159Z,9.80
2022-10-26T03:26:27.729Z,9.80
2022-10-26T03:28:56.268Z,9.80
2022-10-26T03:31:24.806Z,9.80
2022-10-26T03:33:53.271Z,9.80
2022-10-26T03:36:21.738Z,9.80
2022-10-26T03:38:50.189Z,9.80
2022-10-26T03:41:20.029Z,9.80
2022-10-26T03:43:49.067Z,9.80
2022-10-26T03:46:17.518Z,9.80
2022-10-26T03:48:45.978Z,9.80
2022-10-26T03:51:14.445Z,9.70
2022-10-26T03:53:42.938Z,9.70
2022-10-26T03:56:11.747Z,9.80
2022-10-26T03:58:41.561Z,9.70
2022-10-26T04:01:10.088Z,9.70
2022-10-26T04:03:38.639Z,9.70
2022-10-26T04:06:07.638Z,9.70
2022-10-26T04:08:36.091Z,9.70
2022-10-26T04:11:04.895Z,9.70
2022-10-26T04:13:33.478Z,9.70
2022-10-26T04:16:03.435Z,9.70
2022-10-26T04:18:31.979Z,9.60
2022-10-26T04:21:03.302Z,9.60
2022-10-26T04:23:32.048Z,9.60
2022-10-26T04:26:00.577Z,9.60
2022-10-26T04:28:29.040Z,9.60
2022-10-26T04:30:57.568Z,9.60
2022-10-26T04:33:27.560Z,9.60
2022-10-26T04:36:00.891Z,9.60
2022-10-26T04:38:29.378Z,9.70
2022-10-26T04:40:58.878Z,9.60
2022-10-26T04:43:27.401Z,9.60
2022-10-26T04:45:57.118Z,9.60
2022-10-26T04:48:27.130Z,9.60
2022-10-26T04:50:55.595Z,9.60
2022-10-26T04:53:24.130Z,9.50
2022-10-26T04:55:58.310Z,9.50
2022-10-26T04:58:27.036Z,9.50
2022-10-26T05:00:55.872Z,9.50
2022-10-26T05:03:24.348Z,9.50
2022-10-26T05:05:54.178Z,9.40
2022-10-26T05:08:22.759Z,9.40
2022-10-26T05:10:51.570Z,9.40
2022-10-26T05:13:20.067Z,9.40
2022-10-26T05:15:48.686Z,9.30
2022-10-26T05:18:17.207Z,9.30
2022-10-26T05:20:45.678Z,9.30
2022-10-26T05:23:18.740Z,9.20
2022-10-26T05:25:49.187Z,9.20
2022-10-26T05:28:19.034Z,9.20
2022-10-26T05:30:48.271Z,9.20
2022-10-26T05:33:16.880Z,9.20
2022-10-26T05:35:45.498Z,9.20
2022-10-26T05:38:19.490Z,9.20
2022-10-26T05:40:52.024Z,9.20
2022-10-26T05:43:21.364Z,9.20
2022-10-26T05:45:51.870Z,9.30
2022-10-26T05:48:20.689Z,9.20
2022-10-26T05:50:49.279Z,9.30
2022-10-26T05:53:19.189Z,9.30
2022-10-26T05:55:48.308Z,9.30
2022-10-26T05:58:17.400Z,9.20
2022-10-26T06:01:01.761Z,9.20
2022-10-26T06:03:38.129Z,9.20
2022-10-26T06:06:08.739Z,9.20
2022-10-26T06:08:39.391Z,9.20
2022-10-26T06:11:10.356Z,9.20
2022-10-26T06:13:39.322Z,9.20
2022-10-26T06:16:25.878Z,9.20
2022-10-26T06:19:05.629Z,9.20
2022-10-26T06:21:45.410Z,9.20
2022-10-26T06:24:21.656Z,9.20
2022-10-26T06:27:00.478Z,9.20
2022-10-26T06:29:41.901Z,9.20
2022-10-26T06:32:11.649Z,9.20
2022-10-26T06:34:46.201Z,9.10
2022-10-26T06:37:15.283Z,9.10
2022-10-26T06:39:51.301Z,9.00
2022-10-26T06:42:23.307Z,9.10
2022-10-26T06:44:52.488Z,9.00
2022-10-26T06:47:31.363Z,9.10
2022-10-26T06:50:10.901Z,9.00
2022-10-26T06:52:46.720Z,9.00
2022-10-26T06:55:17.722Z,8.90
2022-10-26T06:57:47.143Z,8.90
2022-10-26T07:00:21.268Z,9.00
2022-10-26T07:02:50.750Z,9.00
2022-10-26T07:05:19.668Z,9.00
2022-10-26T07:07:49.381Z,9.00
2022-10-26T07:10:19.574Z,9.00
2022-10-26T07:12:48.071Z,9.00
2022-10-26T07:15:16.671Z,9.00
2022-10-26T07:17:46.208Z,9.10
2022-10-26T07:20:15.379Z,9.10
2022-10-26T07:22:44.062Z,9.20
2022-10-26T07:25:13.315Z,9.20
2022-10-26T07:27:43.262Z,9.30
2022-10-26T07:30:12.578Z,9.30
2022-10-26T07:32:41.014Z,9.40
2022-10-26T07:35:10.261Z,9.50
2022-10-26T07:37:38.958Z,9.60
2022-10-26T07:40:08.925Z,9.60
2022-10-26T07:42:37.677Z,9.70
2022-10-26T07:45:09.227Z,9.70
2022-10-26T07:47:37.691Z,9.80
2022-10-26T07:50:08.719Z,9.90
2022-10-26T07:52:37.167Z,10.10
2022-10-26T07:55:06.193Z,10.20
2022-10-26T07:57:35.822Z,10.30
2022-10-26T08:00:04.833Z,10.30
2022-10-26T08:02:36.948Z,10.30
2022-10-26T08:05:06.236Z,10.40
2022-10-26T08:07:34.737Z,10.50
2022-10-26T08:10:04.736Z,10.70
2022-10-26T08:12:33.246Z,10.80
2022-10-26T08:15:01.690Z,10.90
2022-10-26T08:17:30.387Z,10.90
2022-10-26T08:20:00.423Z,10.90
2022-10-26T08:22:31.038Z,10.90
2022-10-26T08:24:59.562Z,11.00
2022-10-26T08:27:28.130Z,11.20
2022-10-26T08:29:56.610Z,11.30
2022-10-26T08:32:25.140Z,11.60
2022-10-26T08:34:53.628Z,11.80
2022-10-26T08:37:23.667Z,11.90
2022-10-26T08:39:54.754Z,11.90
2022-10-26T08:42:30.072Z,11.90
2022-10-26T08:45:03.157Z,11.90
2022-10-26T08:47:35.842Z,12.00
2022-10-26T08:50:11.690Z,12.00
2022-10-26T08:52:49.279Z,12.00
2022-10-26T08:55:20.423Z,12.10
2022-10-26T08:57:51.493Z,12.10
2022-10-26T09:00:22.882Z,12.20
2022-10-26T09:02:52.269Z,12.30
2022-10-26T09:05:25.084Z,12.40
2022-10-26T09:08:02.428Z,12.70
2022-10-26T09:10:40.335Z,13.10
2022-10-26T09:13:19.496Z,13.70
2022-10-26T09:15:59.758Z,14.40
2022-10-26T09:18:41.967Z,14.70
2022-10-26T09:21:21.252Z,15.20
2022-10-26T09:24:01.114Z,15.60
2022-10-26T09:26:34.257Z,15.30
2022-10-26T09:29:04.996Z,15.30
2022-10-26T09:31:43.140Z,15.20
2022-10-26T09:34:21.884Z,15.30
2022-10-26T09:36:55.288Z,15.70
2022-10-26T09:39:35.067Z,16.30
2022-10-26T09:42:13.141Z,17.70
2022-10-26T09:44:46.439Z,19.40
2022-10-26T09:47:24.655Z,21.00
2022-10-26T09:49:57.531Z,22.20
2022-10-26T09:52:25.685Z,23.60
2022-10-26T09:54:55.653Z,24.70
2022-10-26T09:57:25.104Z,25.50
2022-10-26T09:59:55.870Z,26.30
2022-10-26T10:02:44.008Z,27.40
2022-10-26T10:05:51.346Z,27.80
2022-10-26T10:08:21.956Z,28.50
2022-10-26T10:11:00.471Z,28.70
2022-10-26T10:13:31.143Z,29.20
2022-10-26T10:16:05.788Z,29.50
2022-10-26T10:18:35.374Z,29.80
2022-10-26T10:21:05.935Z,29.90
2022-10-26T10:23:36.167Z,30.00
2022-10-26T10:26:12.371Z,30.00
2022-10-26T10:28:42.571Z,30.00
2022-10-26T10:31:24.338Z,30.00
2022-10-26T10:33:53.376Z,29.70
2022-10-26T10:36:23.921Z,29.90
2022-10-26T10:38:55.779Z,30.10
2022-10-26T10:41:33.337Z,30.60
2022-10-26T10:44:09.974Z,30.50
2022-10-26T10:46:39.718Z,30.50
2022-10-26T10:49:21.571Z,30.30
2022-10-26T10:51:51.978Z,30.20
2022-10-26T10:54:27.221Z,30.40
2022-10-26T10:57:16.094Z,30.40
2022-10-26T11:00:02.973Z,30.40
2022-10-26T11:02:52.231Z,30.10
2022-10-26T11:05:29.875Z,30.60
2022-10-26T11:08:03.967Z,31.20
2022-10-26T11:10:37.110Z,31.30
2022-10-26T11:13:15.151Z,31.60
2022-10-26T11:15:49.918Z,31.50
2022-10-26T11:18:26.407Z,31.70
2022-10-26T11:21:03.329Z,31.70
2022-10-26T11:23:39.094Z,31.90
2022-10-26T11:26:14.327Z,32.30
2022-10-26T11:28:51.257Z,32.50
2022-10-26T11:31:25.001Z,32.60
2022-10-26T11:34:13.837Z,31.90
2022-10-26T11:36:45.783Z,31.70
2022-10-26T11:39:25.306Z,32.00
2022-10-26T11:42:02.649Z,32.50
2022-10-26T11:44:41.543Z,32.80
2022-10-26T11:47:20.494Z,32.50
2022-10-26T11:49:53.724Z,33.40
2022-10-26T11:52:29.790Z,33.30
2022-10-26T11:55:02.382Z,32.90
2022-10-26T11:57:41.121Z,32.70
2022-10-26T12:00:21.040Z,31.90
2022-10-26T12:02:55.975Z,30.70
2022-10-26T12:05:29.229Z,29.50
2022-10-26T12:08:02.122Z,28.20
2022-10-26T12:10:39.710Z,27.00
2022-10-26T12:13:21.066Z,26.10
2022-10-26T12:16:04.065Z,25.20
2022-10-26T12:18:57.165Z,24.70
2022-10-26T12:21:32.103Z,24.30
2022-10-26T12:24:03.037Z,23.80
2022-10-26T12:26:55.651Z,23.30
2022-10-26T12:29:51.580Z,22.90
2022-10-26T12:33:07.545Z,22.80
2022-10-26T12:35:49.134Z,22.50
2022-10-26T12:39:02.821Z,22.60
2022-10-26T12:41:35.691Z,23.30
2022-10-26T12:44:34.041Z,23.70
2022-10-26T12:47:03.999Z,24.30
2022-10-26T12:50:02.641Z,25.20
2022-10-26T12:52:48.761Z,25.60
2022-10-26T12:56:06.202Z,25.80
2022-10-26T12:59:11.028Z,25.60
2022-10-26T13:02:09.558Z,25.30
2022-10-26T13:05:16.096Z,25.00
2022-10-26T13:07:47.138Z,25.20
2022-10-26T13:10:25.112Z,25.80
2022-10-26T13:13:01.500Z,25.90
2022-10-26T13:15:33.469Z,25.90
2022-10-26T13:18:14.912Z,25.60
2022-10-26T13:21:07.871Z,25.40
2022-10-26T13:23:48.947Z,25.20
2022-10-26T13:26:24.696Z,25.10
2022-10-26T13:32:02.978Z,24.80
2022-10-26T13:34:36.543Z,24.60
2022-10-26T13:37:23.092Z,24.30
2022-10-26T13:40:01.105Z,24.00
2022-10-26T13:42:48.318Z,23.80
2022-10-26T13:45:23.489Z,23.40
2022-10-26T13:47:58.395Z,23.00
2022-10-26T13:50:43.483Z,22.80
2022-10-26T13:53:22.774Z,22.50
2022-10-26T13:56:09.366Z,22.30
2022-10-26T13:58:49.853Z,22.10
2022-10-26T14:01:21.687Z,21.90
2022-10-26T14:04:01.070Z,21.80
2022-10-26T14:06:34.334Z,21.60
2022-10-26T14:09:09.270Z,21.50
2022-10-26T14:11:58.812Z,21.40
2022-10-26T14:17:33.777Z,21.30
2022-10-26T14:20:24.214Z,21.20
2022-10-26T14:23:10.281Z,21.10
2022-10-26T14:26:14.858Z,20.90
2022-10-26T14:29:04.611Z,20.90
2022-10-26T14:31:38.256Z,20.80
2022-10-26T14:34:30.129Z,20.90
2022-10-26T14:37:12.988Z,21.00
2022-10-26T14:39:48.192Z,20.90
2022-10-26T14:42:28.961Z,21.00
2022-10-26T14:45:09.376Z,20.80
2022-10-26T14:51:02.041Z,20.30
2022-10-26T14:53:39.534Z,20.10
2022-10-26T14:56:22.108Z,19.90
2022-10-26T14:58:51.712Z,19.70
2022-10-26T15:01:35.729Z,19.40
2022-10-26T15:04:07.521Z,19.20
2022-10-26T15:06:44.148Z,19.00
2022-10-26T15:09:50.199Z,18.80
2022-10-26T15:12:28.826Z,18.60
2022-10-26T15:15:06.603Z,18.60
2022-10-26T15:17:41.189Z,18.50
2022-10-26T15:20:17.964Z,18.40
2022-10-26T15:22:53.838Z,18.40
2022-10-26T15:25:26.102Z,18.20
2022-10-26T15:27:54.999Z,18.00
2022-10-26T15:30:26.347Z,18.00
2022-10-26T15:32:56.538Z,17.80
2022-10-26T15:35:31.813Z,17.70
2022-10-26T15:38:02.264Z,17.60
2022-10-26T15:40:32.532Z,17.50
2022-10-26T15:43:03.141Z,17.40
2022-10-26T15:45:35.225Z,17.30
2022-10-26T15:48:21.213Z,17.20
2022-10-26T15:50:49.958Z,17.00
2022-10-26T15:53:23.415Z,16.90
2022-10-26T15:55:54.115Z,16.80
2022-10-26T15:58:23.540Z,16.70
2022-10-26T16:00:53.140Z,16.50
2022-10-26T16:03:24.239Z,16.50
2022-10-26T16:05:58.231Z,16.40
2022-10-26T16:08:31.651Z,16.30
2022-10-26T16:11:01.266Z,16.30
2022-10-26T16:13:32.700Z,16.20
2022-10-26T16:16:01.579Z,16.20
2022-10-26T16:18:31.808Z,16.10
2022-10-26T16:21:00.799Z,16.10
2022-10-26T16:23:32.361Z,16.00
2022-10-26T16:26:01.929Z,16.00
2022-10-26T16:28:31.183Z,16.00
2022-10-26T16:31:06.552Z,16.00
2022-10-26T16:33:39.423Z,16.00
2022-10-26T16:36:09.834Z,16.00
2022-10-26T16:38:41.105Z,15.90
2022-10-26T16:41:12.970Z,15.90
2022-10-26T16:43:46.031Z,15.90
2022-10-26T16:46:15.702Z,15.90
2022-10-26T16:48:46.064Z,15.80
2022-10-26T16:51:17.084Z,15.70
2022-10-26T16:53:49.149Z,15.60
2022-10-26T16:56:20.477Z,15.50
2022-10-26T16:58:51.626Z,15.40
2022-10-26T17:01:23.108Z,15.30
2022-10-26T17:03:53.610Z,15.30
2022-10-26T17:06:24.944Z,15.30
2022-10-26T17:08:55.517Z,15.20
2022-10-26T17:11:24.831Z,15.20
2022-10-26T17:13:56.502Z,15.10
2022-10-26T17:16:28.656Z,15.20
2022-10-26T17:19:05.452Z,15.10
2022-10-26T17:21:39.249Z,15.20
2022-10-26T17:24:10.487Z,15.20
2022-10-26T17:26:40.409Z,15.20
2022-10-26T17:29:11.589Z,15.20
2022-10-26T17:31:43.479Z,15.20
2022-10-26T17:34:18.405Z,15.20
2022-10-26T17:36:49.333Z,15.20
2022-10-26T17:39:28.268Z,15.10
2022-10-26T17:41:59.910Z,15.20
2022-10-26T17:44:30.820Z,15.20
2022-10-26T17:46:59.575Z,15.20
2022-10-26T17:49:36.284Z,15.20
2022-10-26T17:52:06.464Z,15.30
2022-10-26T17:54:37.152Z,15.40
2022-10-26T17:57:09.432Z,15.40
2022-10-26T17:59:38.881Z,15.40
2022-10-26T18:02:13.336Z,15.40
2022-10-26T18:04:50.002Z,15.40
2022-10-26T18:07:22.141Z,15.30
2022-10-26T18:09:54.492Z,15.20
2022-10-26T18:12:24.492Z,15.10
2022-10-26T18:14:53.316Z,15.10
2022-10-26T18:17:26.671Z,15.00
2022-10-26T18:22:26.499Z,14.90
2022-10-26T18:24:57.346Z,14.80
2022-10-26T18:27:26.857Z,14.80
2022-10-26T18:29:56.928Z,14.70
2022-10-26T18:32:26.565Z,14.70
2022-10-26T18:34:57.226Z,14.70
2022-10-26T18:37:28.430Z,14.70
2022-10-26T18:40:01.364Z,14.70
2022-10-26T18:42:31.476Z,14.70
2022-10-26T18:45:04.212Z,14.70
2022-10-26T18:47:35.516Z,14.70
2022-10-26T18:50:06.158Z,14.70
2022-10-26T18:52:35.842Z,14.70
2022-10-26T18:55:07.242Z,14.70
2022-10-26T18:57:42.106Z,14.70
2022-10-26T19:00:13.026Z,14.70
2022-10-26T19:02:42.259Z,14.70
2022-10-26T19:05:13.450Z,14.70
2022-10-26T19:07:42.384Z,14.70
2022-10-26T19:10:14.366Z,14.60
2022-10-26T19:12:43.762Z,14.50
2022-10-26T19:15:16.125Z,14.40
2022-10-26T19:17:45.615Z,14.40
2022-10-26T19:20:17.236Z,14.30
2022-10-26T19:22:49.040Z,14.20
2022-10-26T19:25:22.551Z,14.10
2022-10-26T19:27:57.245Z,14.00
2022-10-26T19:30:26.994Z,14.00
2022-10-26T19:32:57.666Z,13.90
2022-10-26T19:35:30.101Z,13.90
2022-10-26T19:38:00.822Z,13.80
2022-10-26T19:40:33.054Z,13.80
2022-10-26T19:43:02.662Z,13.70
2022-10-26T19:45:33.171Z,13.70
2022-10-26T19:48:02.840Z,13.60
2022-10-26T19:50:31.637Z,13.50
2022-10-26T19:53:04.109Z,13.60
2022-10-26T19:55:36.963Z,13.50
2022-10-26T19:58:05.886Z,13.50
2022-10-26T20:00:36.835Z,13.50
2022-10-26T20:03:06.865Z,13.50
2022-10-26T20:05:36.778Z,13.50
2022-10-26T20:08:08.092Z,13.40
2022-10-26T20:10:42.674Z,13.50
2022-10-26T20:13:13.624Z,13.40
2022-10-26T20:15:49.257Z,13.40
2022-10-26T20:18:20.807Z,13.40
2022-10-26T20:20:51.253Z,13.40
2022-10-26T20:23:22.139Z,13.50
2022-10-26T20:25:56.070Z,13.50
2022-10-26T20:28:28.812Z,13.50
2022-10-26T20:30:59.884Z,13.50
2022-10-26T20:33:29.401Z,13.50
2022-10-26T20:35:59.046Z,13.50
2022-10-26T20:38:29.646Z,13.40
2022-10-26T20:41:03.678Z,13.40
2022-10-26T20:43:38.200Z,13.40
2022-10-26T20:46:07.679Z,13.40
2022-10-26T20:48:39.153Z,13.50
2022-10-26T20:51:14.412Z,13.50
2022-10-26T20:53:47.281Z,13.50
2022-10-26T20:56:24.178Z,13.60
2022-10-26T20:58:56.036Z,13.60
2022-10-26T21:01:28.098Z,13.60
2022-10-26T21:03:58.664Z,13.60
2022-10-26T21:06:28.591Z,13.60
2022-10-26T21:08:59.779Z,13.60
2022-10-26T21:11:30.328Z,13.50
2022-10-26T21:14:01.136Z,13.50
2022-10-26T21:16:30.376Z,13.50
2022-10-26T21:19:00.433Z,13.40
2022-10-26T21:21:29.260Z,13.30
2022-10-26T21:23:58.318Z,13.20
2022-10-26T21:26:27.150Z,13.20
2022-10-26T21:28:57.385Z,13.20
2022-10-26T21:31:26.233Z,13.20
2022-10-26T21:33:55.023Z,13.20
2022-10-26T21:36:24.144Z,13.10
2022-10-26T21:38:53.704Z,13.10
2022-10-26T21:44:03.282Z,13.10
2022-10-26T21:46:39.771Z,13.00
2022-10-26T21:49:08.600Z,12.90
2022-10-26T21:51:37.316Z,12.90
2022-10-26T21:54:06.280Z,12.80
2022-10-26T21:56:35.030Z,12.70
2022-10-26T21:59:03.853Z,12.70
2022-10-26T22:01:33.116Z,12.60
2022-10-26T22:04:03.409Z,12.50
2022-10-26T22:06:32.324Z,12.50
2022-10-26T22:09:01.621Z,12.50
2022-10-26T22:11:30.557Z,12.40
2022-10-26T22:13:59.988Z,12.40
2022-10-26T22:16:30.152Z,12.30
2022-10-26T22:19:00.875Z,12.30
2022-10-26T22:21:34.934Z,12.30
2022-10-26T22:24:03.888Z,12.30
2022-10-26T22:26:36.259Z,12.30
2022-10-26T22:29:05.549Z,12.20
2022-10-26T22:31:36.001Z,12.20
2022-10-26T22:34:07.851Z,12.20
2022-10-26T22:36:38.575Z,12.20
2022-10-26T22:39:07.543Z,12.20
2022-10-26T22:41:36.448Z,12.10
2022-10-26T22:44:06.518Z,12.10
2022-10-26T22:46:35.348Z,12.10
2022-10-26T22:49:04.463Z,12.10
2022-10-26T22:51:35.535Z,12.10
2022-10-26T22:54:07.126Z,12.10
2022-10-26T22:56:37.674Z,12.00
2022-10-26T22:59:07.522Z,12.00
2022-10-26T23:01:41.946Z,12.10
2022-10-26T23:04:13.145Z,12.10
2022-10-26T23:06:42.248Z,12.20
2022-10-26T23:09:12.626Z,12.20
2022-10-26T23:11:41.413Z,12.10
2022-10-26T23:14:11.359Z,12.10
2022-10-26T23:16:40.283Z,12.20
2022-10-26T23:19:09.955Z,12.20
2022-10-26T23:21:38.523Z,12.20
2022-10-26T23:24:07.214Z,12.20
2022-10-26T23:26:37.224Z,12.20
2022-10-26T23:29:05.963Z,12.20
2022-10-26T23:31:34.483Z,12.10
2022-10-26T23:34:02.984Z,12.10
2022-10-26T23:36:31.478Z,12.10
2022-10-26T23:39:03.121Z,12.10
2022-10-26T23:41:31.605Z,12.10
2022-10-26T23:44:02.672Z,12.00
2022-10-26T23:46:31.261Z,12.10
2022-10-26T23:48:59.803Z,12.10
2022-10-26T23:51:28.272Z,12.10
2022-10-26T23:53:56.762Z,12.10
2022-10-26T23:56:25.418Z,12.10
2022-10-26T23:58:53.951Z,12.20
